KGLE

Gainesville Municipal Airport

Gainesville, Texas, USA
METAR KGLE 212315Z AUTO 02005KT 10SM CLR 30/16 A3011 RMK AO2 T03010160
Observed Flight Rules
Aug-21 @ 23:15 UTC (30 minutes ago) Visual Flight Rules
Wind Visibility Clouds
20° at 5 knots 10 miles
  • Clear skies
Temperatures Readings
Current 30°C / 86°F
Dewpoint 16°C / 61°F
Humidity 43%
Altimeter 30.11" Hg
Pressure 1020 hPa
Elevation 256
METAR KGLE 212315Z AUTO 02005KT 10SM CLR 30/16 A3011 RMK AO2 T03010160
Observed Flight Rules
Aug-21 @ 23:15 UTC
(30 minutes ago)
VFR
Wind Visibility
20° at 5 knots 10 miles
Clouds
  • Clear skies
Temperature Dewpoint
30°C / 86°F 16°C / 61°F
Humidity Altimeter Pressure
43% 30.11" Hg 1020 hPa